Flight Track Log - Related Links

Times and Time Zones

All times are in EDT time to prevent confusion due to time zone crossing. See the EJA829P flight status page for this flight to view local times or setup timezone preferences in your user account.

Time Position Orientation Groundspeed Altitude Reporting Facility
EDT Latitude Longitude Course Direction KTS MPH feet Rate Location/Type
Mon 06:39:19 PM 27.6542 -80.3875 336° Northwest 408 470 1,200  Level Miami Center
Mon 06:40:19 PM 27.6867 -80.3322 56° Northeast 291 335 4,600 3,200 Climbing Miami Center
Mon 06:41:19 PM 27.7256 -80.3664 322° Northwest 129 148 7,600 2,833 Climbing Miami Center
Mon 06:43:19 PM 27.7556 -80.4986 284° West 214 246 13,100 2,500 Climbing Miami Center
Mon 06:44:00 PM 28.2446 -80.8056 336° Northwest  Level FlightAware Approximate
Mon 06:44:19 PM 27.8106 -80.5567 317° Northwest 238 274 15,100  Level Miami Center
Mon 06:45:19 PM 27.8633 -80.6100 318° Northwest 253 291 16,900 1,650 Climbing Miami Center
Mon 06:46:19 PM 27.9100 -80.6608 316° Northwest 262 302 18,400 1,450 Climbing Miami Center
Mon 06:47:19 PM 27.9689 -80.7242 316° Northwest 274 315 19,800 1,300 Climbing Miami Center
Mon 06:48:19 PM 28.0319 -80.7897 317° Northwest 287 330 21,000 1,200 Climbing Miami Center
Mon 06:49:19 PM 28.0947 -80.8578 316° Northwest 302 348 22,200 1,200 Climbing Miami Center
Mon 06:50:19 PM 28.1594 -80.9261 317° Northwest 309 356 23,400 1,200 Climbing Miami Center
Mon 06:51:19 PM 28.2264 -80.9967 317° Northwest 321 369 24,600 1,100 Climbing Miami Center
Mon 06:52:19 PM 28.2933 -81.0675 317° Northwest 326 375 25,600 1,000 Climbing Miami Center
Mon 06:53:31 PM 28.3742 -81.1531 317° Northwest 326 375 26,800 955 Climbing Miami Center
Mon 06:54:31 PM 28.4389 -81.2239 316° Northwest 326 375 27,700 900 Climbing Miami Center
Mon 06:55:31 PM 28.5075 -81.2953 318° Northwest 326 375 28,600 1,038 Climbing Miami Center
Mon 06:56:15 PM 28.5600 -81.3444 321° Northwest 323 372 29,500 1,212 Climbing Jacksonville Center
Mon 06:57:15 PM 28.6583 -81.3572 353° North 329 379 30,700 1,462 Climbing Jacksonville Center
Mon 06:58:14 PM 28.7606 -81.3603 358° North 345 397 32,400 1,765 Climbing Jacksonville Center
Mon 06:59:14 PM 28.8692 -81.3706 355° North 350 403 34,200 1,750 Climbing Jacksonville Center
Mon 07:00:14 PM 28.9675 -81.3783 356° North 350 403 35,900 1,686 Climbing Jacksonville Center
Mon 07:01:15 PM 29.0614 -81.3914 353° North 350 403 37,600 1,400 Climbing Jacksonville Center
Mon 07:02:14 PM 29.1492 -81.3969 357° North 338 389 38,700 706 Climbing Jacksonville Center
Mon 07:03:14 PM 29.2411 -81.4028 357° North 326 375 39,000 150 Climbing Jacksonville Center
Mon 07:04:14 PM 29.3433 -81.3942 North 337 388 39,000  Level Jacksonville Center
Mon 07:05:14 PM 29.4556 -81.3542 17° North 382 440 39,000  Level Jacksonville Center
Mon 07:06:15 PM 29.5553 -81.3217 16° North 402 463 39,000  Level Jacksonville Center
Mon 07:07:15 PM 29.6697 -81.2839 16° North 415 478 39,000  Level Jacksonville Center
Mon 07:08:14 PM 29.7842 -81.2461 16° North 420 483 39,000  Level Jacksonville Center
Mon 07:09:15 PM 29.8983 -81.2083 16° North 420 483 39,000  Level Jacksonville Center
Mon 07:10:15 PM 30.0147 -81.1656 18° North 420 483 39,000  Level Jacksonville Center
Mon 07:11:14 PM 30.1289 -81.1250 17° North 425 489 39,000  Level Jacksonville Center
Mon 07:12:14 PM 30.2475 -81.0867 16° North 425 489 39,000  Level Jacksonville Center
Mon 07:13:15 PM 30.3617 -81.0461 17° North 425 489 39,000  Level Jacksonville Center
Mon 07:14:15 PM 30.4758 -81.0053 17° North 425 489 39,000  Level Jacksonville Center
Mon 07:15:14 PM 30.5903 -80.9669 16° North 425 489 39,000  Level Jacksonville Center
Mon 07:16:15 PM 30.7044 -80.9283 16° North 425 489 39,000  Level Jacksonville Center
Mon 07:17:14 PM 30.8208 -80.8872 17° North 420 483 39,000  Level Jacksonville Center
Mon 07:18:14 PM 30.9350 -80.8483 16° North 420 483 39,000  Level Jacksonville Center
Mon 07:19:15 PM 31.0450 -80.8097 17° North 420 483 39,000  Level Jacksonville Center
Mon 07:20:15 PM 31.1592 -80.7683 17° North 415 478 39,000  Level Jacksonville Center
Mon 07:21:14 PM 31.2756 -80.7317 15° North 415 478 39,000  Level Jacksonville Center
Mon 07:22:14 PM 31.3917 -80.6925 16° North 420 483 39,000  Level Jacksonville Center
Mon 07:23:15 PM 31.5036 -80.6508 18° North 420 483 39,000  Level Jacksonville Center
Mon 07:24:15 PM 31.6261 -80.6089 16° North 415 478 39,000  Level Jacksonville Center
Mon 07:25:15 PM 31.7319 -80.5719 17° North 420 483 39,000  Level Jacksonville Center
Mon 07:26:15 PM 31.8564 -80.5272 17° North 420 483 39,000  Level Jacksonville Center
Mon 07:27:14 PM 31.9703 -80.4853 17° North 420 483 39,000  Level Jacksonville Center
Mon 07:28:15 PM 32.0742 -80.4506 16° North 420 483 39,000  Level Jacksonville Center
Mon 07:29:15 PM 32.1861 -80.4083 18° North 420 483 39,000  Level Jacksonville Center
Mon 07:30:15 PM 32.3000 -80.3683 17° North 420 483 39,000  Level Jacksonville Center
Mon 07:31:14 PM 32.4161 -80.3258 17° North 420 483 39,000  Level Jacksonville Center
Mon 07:32:14 PM 32.5281 -80.2858 17° North 420 483 39,000  Level Jacksonville Center
Mon 07:33:15 PM 32.6439 -80.2431 17° North 420 483 39,000  Level Jacksonville Center
Mon 07:34:14 PM 32.7581 -80.2025 17° North 420 483 39,000  Level Jacksonville Center
Mon 07:35:15 PM 32.8739 -80.1594 17° North 420 483 39,000  Level Jacksonville Center
Mon 07:36:15 PM 32.9961 -80.1161 17° North 436 502 39,000  Level Jacksonville Center
Mon 07:37:15 PM 33.1081 -80.0756 17° North 436 502 39,000  Level Jacksonville Center
Mon 07:38:15 PM 33.2258 -80.0294 18° North 436 502 39,000  Level Jacksonville Center
Mon 07:39:14 PM 33.3439 -79.9861 17° North 436 502 39,000  Level Jacksonville Center
Mon 07:40:14 PM 33.4619 -79.9447 16° North 436 502 39,000  Level Jacksonville Center
Mon 07:41:15 PM 33.5797 -79.9011 17° North 436 502 39,000  Level Jacksonville Center
Mon 07:42:15 PM 33.6956 -79.8597 17° North 436 502 39,000  Level Jacksonville Center
Mon 07:43:15 PM 33.8114 -79.8156 18° North 436 502 39,000  Level Jacksonville Center
Mon 07:44:15 PM 33.9292 -79.7714 17° North 436 502 39,000  Level Jacksonville Center
Mon 07:45:15 PM 34.0450 -79.7272 18° North 436 502 39,000  Level Jacksonville Center
Mon 07:46:15 PM 34.1628 -79.6828 17° North 436 502 39,000  Level Jacksonville Center
Mon 07:47:15 PM 34.2764 -79.6333 20° North 436 502 39,000  Level Jacksonville Center
Mon 07:48:55 PM 34.4742 -79.5319 23° Northeast 470 541 39,000  Level Washington Center
Mon 07:49:56 PM 34.5911 -79.4669 25° Northeast 463 533 39,000  Level Washington Center
Mon 07:50:56 PM 34.7078 -79.4044 24° Northeast 456 525 39,000  Level Washington Center
Mon 07:51:57 PM 34.8267 -79.3417 23° Northeast 451 519 39,000  Level Washington Center
Mon 07:52:57 PM 34.9453 -79.2786 24° Northeast 451 519 39,000  Level Washington Center
Mon 07:53:55 PM 35.0642 -79.2156 23° Northeast 451 519 39,000  Level Washington Center
Mon 07:54:57 PM 35.1789 -79.1522 24° Northeast 451 519 39,000  Level Washington Center
Mon 07:55:57 PM 35.2953 -79.0886 24° Northeast 451 519 39,000  Level Washington Center
Mon 07:56:57 PM 35.4164 -79.0225 24° Northeast 451 519 39,000  Level Washington Center
Mon 07:57:55 PM 35.5328 -78.9611 23° Northeast 451 519 39,000  Level Washington Center
Mon 07:58:57 PM 35.6514 -78.8972 24° Northeast 451 519 39,000  Level Washington Center
Mon 07:59:57 PM 35.7700 -78.8303 25° Northeast 456 525 39,000  Level Washington Center
Mon 08:00:55 PM 35.8867 -78.7658 24° Northeast 456 525 39,000  Level Washington Center
Mon 08:01:57 PM 36.0031 -78.6989 25° Northeast 456 525 39,000  Level Washington Center
Mon 08:02:57 PM 36.1194 -78.6364 23° Northeast 456 525 39,000  Level Washington Center
Mon 08:03:55 PM 36.2339 -78.5689 25° Northeast 456 525 39,000  Level Washington Center
Mon 08:04:56 PM 36.3500 -78.5061 24° Northeast 450 518 39,000  Level Washington Center
Mon 08:05:56 PM 36.4686 -78.4408 24° Northeast 450 518 39,000  Level Washington Center
Mon 08:06:57 PM 36.5850 -78.3728 25° Northeast 450 518 39,000  Level Washington Center
Mon 08:07:57 PM 36.6992 -78.3069 25° Northeast 450 518 39,000  Level Washington Center
Mon 08:08:55 PM 36.8175 -78.2408 24° Northeast 445 512 39,000  Level Washington Center
Mon 08:09:56 PM 36.9314 -78.1747 25° Northeast 445 512 39,000  Level Washington Center
Mon 08:10:56 PM 37.0456 -78.1081 25° Northeast 445 512 39,000  Level Washington Center
Mon 08:11:57 PM 37.1617 -78.0417 24° Northeast 445 512 39,000  Level Washington Center
Mon 08:12:57 PM 37.2756 -77.9747 25° Northeast 445 512 39,000  Level Washington Center
Mon 08:13:55 PM 37.3917 -77.9078 25° Northeast 445 512 39,000  Level Washington Center
Mon 08:14:55 PM 37.5078 -77.8406 25° Northeast 445 512 39,000  Level Washington Center
Mon 08:15:56 PM 37.6178 -77.7522 32° Northeast 452 520 39,000  Level Washington Center
Mon 08:16:56 PM 37.7258 -77.6528 36° Northeast 470 541 39,000  Level Washington Center
Mon 08:17:56 PM 37.8339 -77.5533 36° Northeast 475 547 39,000  Level Washington Center
Mon 08:18:58 PM 37.9397 -77.4558 36° Northeast 475 547 39,000  Level Washington Center
Mon 08:19:55 PM 38.0456 -77.3611 35° Northeast 475 547 39,000 -615 Level Washington Center
Mon 08:20:55 PM 38.1511 -77.2578 38° Northeast 475 547 37,800 -984 Descending Washington Center
Mon 08:21:57 PM 38.2547 -77.1544 38° Northeast 475 547 37,000 -393 Descending Washington Center
Mon 08:22:57 PM 38.3583 -77.0533 37° Northeast 469 540 37,000 -403 Level Washington Center
Mon 08:23:56 PM 38.4636 -76.9519 37° Northeast 469 540 36,200 -1,361 Descending Washington Center
Mon 08:24:56 PM 38.5650 -76.8475 39° Northeast 469 540 34,300 -1,884 Descending Washington Center
Mon 08:25:57 PM 38.6722 -76.7431 37° Northeast 469 540 32,400 -1,916 Descending Washington Center
Mon 08:26:55 PM 38.7794 -76.6381 37° Northeast 474 545 30,500 -1,881 Descending Washington Center
Mon 08:27:55 PM 38.8806 -76.5331 39° Northeast 468 539 28,700 -1,835 Descending Washington Center
Mon 08:28:56 PM 38.9814 -76.4328 38° Northeast 463 533 26,800 -1,785 Descending Washington Center
Mon 08:29:56 PM 39.0800 -76.3322 38° Northeast 463 533 25,100 -1,388 Descending Washington Center
Mon 08:30:57 PM 39.1764 -76.2369 37° Northeast 447 514 24,000 -655 Descending Washington Center
Mon 08:31:55 PM 39.2831 -76.1278 38° Northeast 440 506 23,800 -1,385 Descending Washington Center
Mon 08:34:12 PM 39.5000 -75.9167 37° Northeast 400 460 19,500 -1,892 Descending Philadelphia TRACON
Mon 08:35:18 PM 39.5833 -75.8167 43° Northeast 390 449 17,400 -1,800 Descending Philadelphia TRACON
Mon 08:36:12 PM 39.6667 -75.7500 32° Northeast 366 421 15,900 -1,684 Descending Philadelphia TRACON
Mon 08:37:12 PM 39.7333 -75.6667 44° Northeast 358 412 14,200 -1,450 Descending Philadelphia TRACON
Mon 08:38:12 PM 39.8167 -75.5833 38° Northeast 348 400 13,000 -600 Descending Philadelphia TRACON
Mon 08:39:12 PM 39.8833 -75.5167 37° Northeast 344 396 13,000  Level Philadelphia TRACON
Mon 08:40:18 PM 39.9833 -75.4333 33° Northeast 340 391 13,000  Level Philadelphia TRACON
Mon 08:41:18 PM 40.0500 -75.3667 37° Northeast 342 394 13,000  Level Philadelphia TRACON
Mon 08:42:12 PM 40.1167 -75.3000 37° Northeast 340 391 13,000 -526 Level Philadelphia TRACON
Mon 08:43:12 PM 40.2000 -75.2333 31° Northeast 339 390 12,000 -1,250 Descending Philadelphia TRACON
Mon 08:44:12 PM 40.2667 -75.1667 37° Northeast 298 343 10,500 -1,491 Descending Philadelphia TRACON
Mon 08:45:53 PM 40.3667 -75.0500 42° Northeast 279 321 8,000 -1,304 Descending New York TRACON
Mon 08:46:53 PM 40.4167 -74.9833 45° Northeast 266 306 7,000 -1,200 Descending New York TRACON
Mon 08:47:53 PM 40.4667 -74.9000 52° Northeast 266 306 5,600 -1,350 Descending New York TRACON
Mon 08:48:53 PM 40.5167 -74.8333 45° Northeast 256 295 4,300 -762 Descending New York TRACON
Mon 08:49:59 PM 40.5833 -74.7833 30° Northeast 252 290 4,000 -143 Descending New York TRACON
Mon 08:50:59 PM 40.6500 -74.7333 30° Northeast 255 293 4,000  Level New York TRACON
Mon 08:51:59 PM 40.7000 -74.7000 27° Northeast 256 295 4,000  Level New York TRACON
Mon 08:53:05 PM 40.7833 -74.6333 31° Northeast 253 291 4,000  Level New York TRACON
Mon 08:54:05 PM 40.8333 -74.6000 27° Northeast 249 287 4,000 -53 Level New York TRACON
Mon 08:54:59 PM 40.8833 -74.5500 37° Northeast 249 287 3,900 -526 Descending New York TRACON
Mon 08:55:59 PM 40.9333 -74.4833 45° Northeast 257 296 3,000 -450 Descending New York TRACON
Mon 08:56:59 PM 40.9500 -74.4000 75° East 253 291 3,000  Level New York TRACON
Mon 08:57:59 PM 40.9833 -74.3167 62° Northeast 246 283 3,000 -150 Level New York TRACON
Mon 08:58:59 PM 41.0000 -74.2333 75° East 222 255 2,700 -476 Descending New York TRACON
Mon 09:00:05 PM 41.0000 -74.1500 90° East 205 236 2,000 -350 Descending New York TRACON
Mon 09:00:59 PM 40.9833 -74.0833 108° East 207 238 2,000 -211 Level New York TRACON
Mon 09:01:59 PM 40.9500 -74.0333 131° Southeast 197 227 1,600 -300 Descending New York TRACON
Mon 09:02:59 PM 40.9000 -74.0000 153° Southeast 154 177 1,400 -500 Descending New York TRACON
Mon 09:03:59 PM 40.8833 -74.0333 237° Southwest 114 131 600 -800 Descending New York TRACON
Mon 09:05:00 PM 40.8500 -74.0500 169° South  Level FlightAware Approximate

Login

Don't have an account? Register now (free) for customized features, flight alerts, and more!